Time;durP1;ratioP1;P1;durP2;ratioP2;P2;SDS_P1;SDS_P2;PMS_P1;PMS_P2;Temp;Humidity;BMP_temperature;BMP_pressure;BME280_temperature;BME280_humidity;BME280_pressure;Samples;Min_cycle;Max_cycle;Signal;HPM_P1;HPM_P2
2022/01/23 00:00:43;;;;;;;111.85;54.75;;;;;;;;;;5058804;28;20028;-74
2022/01/23 00:03:17;;;;;;;114.60;51.30;;;;;;;;;;5076709;28;20103;-73
2022/01/23 00:05:48;;;;;;;107.38;51.67;;;;;;;;;;5076792;28;20021;-75
2022/01/23 00:08:17;;;;;;;96.82;47.95;;;;;;;;;;5076721;28;20107;-74
2022/01/23 00:10:44;;;;;;;108.95;50.70;;;;;;;;;;5076072;28;20017;-73
2022/01/23 00:13:27;;;;;;;91.70;49.42;;;;;;;;;;5058358;28;20292;-73
2022/01/23 00:18:38;;;;;;;102.07;47.40;;;;;;;;;;5076805;28;20343;-73
2022/01/23 00:21:05;;;;;;;106.70;53.42;;;;;;;;;;5058129;28;20426;-73
2022/01/23 00:30:19;;;;;;;105.95;51.90;;;;;;;;;;5058462;28;20028;-73
2022/01/23 00:31:49;;;;;;;102.90;51.63;;;;;;;;;;5076510;28;20385;-73
2022/01/23 00:34:15;;;;;;;104.53;49.60;;;;;;;;;;5076200;28;20017;-73
2022/01/23 00:36:41;;;;;;;109.82;52.08;;;;;;;;;;5058233;28;20021;-74
2022/01/23 00:39:07;;;;;;;96.63;44.38;;;;;;;;;;5058146;28;20443;-73
2022/01/23 00:41:33;;;;;;;95.00;47.15;;;;;;;;;;5079766;28;20338;-73
2022/01/23 00:44:00;;;;;;;90.65;45.38;;;;;;;;;;5080016;28;20027;-73
2022/01/23 00:46:35;;;;;;;88.82;47.72;;;;;;;;;;5080628;28;20111;-73
2022/01/23 00:49:24;;;;;;;100.88;47.97;;;;;;;;;;5062149;28;20020;-73
2022/01/23 00:51:48;;;;;;;89.88;45.28;;;;;;;;;;5079948;28;20020;-74
2022/01/23 00:54:14;;;;;;;90.72;48.25;;;;;;;;;;5045081;28;20103;-74
2022/01/23 00:56:40;;;;;;;102.07;49.20;;;;;;;;;;5079934;28;20027;-73
2022/01/23 00:59:06;;;;;;;81.68;44.17;;;;;;;;;;5079427;28;20103;-73
2022/01/23 01:01:32;;;;;;;89.05;45.60;;;;;;;;;;5079820;28;20038;-73
2022/01/23 01:03:58;;;;;;;102.82;48.83;;;;;;;;;;5062201;28;20028;-73
2022/01/23 01:06:24;;;;;;;102.00;49.72;;;;;;;;;;5062653;28;20020;-73
2022/01/23 01:08:51;;;;;;;95.85;47.25;;;;;;;;;;5079736;28;20031;-74
2022/01/23 01:14:21;;;;;;;94.82;45.28;;;;;;;;;;5079536;28;20453;-74
2022/01/23 01:35:17;;;;;;;95.53;46.38;;;;;;;;;;5079238;28;20046;-73
2022/01/23 01:37:43;;;;;;;93.00;49.20;;;;;;;;;;5061261;28;20023;-73
2022/01/23 01:40:09;;;;;;;92.93;47.85;;;;;;;;;;5060427;28;20078;-73
2022/01/23 01:42:35;;;;;;;92.97;47.25;;;;;;;;;;5078932;28;20039;-73
2022/01/23 01:45:01;;;;;;;93.15;46.22;;;;;;;;;;5060806;28;20025;-73
2022/01/23 01:47:27;;;;;;;98.75;51.55;;;;;;;;;;5061117;28;20028;-73
2022/01/23 01:49:53;;;;;;;104.65;49.08;;;;;;;;;;5078648;28;20027;-73
2022/01/23 01:52:19;;;;;;;97.10;51.45;;;;;;;;;;5060375;28;20453;-73
2022/01/23 01:54:47;;;;;;;93.95;46.90;;;;;;;;;;5078633;28;20016;-73
2022/01/23 01:57:15;;;;;;;87.22;46.28;;;;;;;;;;5078195;28;20020;-73
2022/01/23 02:10:25;;;;;;;72.60;36.97;;;;;;;;;;5078235;28;20040;-73
2022/01/23 02:13:07;;;;;;;68.85;33.03;;;;;;;;;;5060170;28;20031;-73
2022/01/23 02:16:04;;;;;;;56.85;29.63;;;;;;;;;;5059893;28;20026;-73
2022/01/23 02:22:25;;;;;;;58.05;29.85;;;;;;;;;;5078303;28;20053;-73
2022/01/23 02:51:43;;;;;;;62.80;31.45;;;;;;;;;;5059783;28;20027;-73
2022/01/23 02:56:46;;;;;;;57.13;30.48;;;;;;;;;;5059457;28;20115;-73
2022/01/23 02:59:36;;;;;;;59.05;29.27;;;;;;;;;;5077185;28;20436;-73
2022/01/23 03:04:33;;;;;;;72.07;36.15;;;;;;;;;;5059113;28;20025;-73
2022/01/23 03:28:21;;;;;;;32.58;19.08;;;;;;;;;;5076882;28;20107;-73
2022/01/23 03:31:18;;;;;;;43.65;21.30;;;;;;;;;;5076838;28;20024;-73
2022/01/23 03:33:44;;;;;;;57.47;28.23;;;;;;;;;;5076433;28;20029;-73
2022/01/23 03:36:10;;;;;;;52.25;25.30;;;;;;;;;;5059223;28;20437;-73
2022/01/23 03:38:36;;;;;;;42.28;21.52;;;;;;;;;;5058144;28;20024;-73
2022/01/23 03:41:03;;;;;;;40.25;21.75;;;;;;;;;;5058102;28;20040;-73
2022/01/23 03:43:32;;;;;;;34.28;17.90;;;;;;;;;;5058692;28;20024;-73
2022/01/23 03:51:10;;;;;;;36.22;18.30;;;;;;;;;;5076758;28;20020;-73
2022/01/23 03:53:36;;;;;;;36.38;16.33;;;;;;;;;;5058653;28;20432;-73
2022/01/23 03:56:02;;;;;;;37.50;16.90;;;;;;;;;;5058411;28;20110;-73
2022/01/23 03:58:29;;;;;;;29.63;18.05;;;;;;;;;;5076290;28;20078;-73
2022/01/23 04:00:55;;;;;;;30.90;17.50;;;;;;;;;;5076931;28;20051;-73
2022/01/23 04:03:21;;;;;;;43.10;18.02;;;;;;;;;;5076149;28;20415;-73
2022/01/23 04:05:47;;;;;;;34.63;16.73;;;;;;;;;;5076438;28;20039;-73
2022/01/23 04:08:15;;;;;;;30.98;16.90;;;;;;;;;;5058476;28;20423;-73
2022/01/23 04:10:42;;;;;;;36.05;18.75;;;;;;;;;;5058727;28;20025;-73
2022/01/23 04:16:04;;;;;;;107.72;50.45;;;;;;;;;;5076158;28;20073;-73
2022/01/23 04:31:47;;;;;;;68.07;37.88;;;;;;;;;;5058621;28;20016;-74
2022/01/23 04:46:28;;;;;;;60.97;30.05;;;;;;;;;;5076111;28;20020;-74
2022/01/23 04:59:49;;;;;;;88.07;45.75;;;;;;;;;;5076001;28;20070;-73
2022/01/23 05:04:45;;;;;;;65.28;34.25;;;;;;;;;;5057684;28;20048;-73
2022/01/23 05:07:14;;;;;;;61.35;31.88;;;;;;;;;;5041879;28;20027;-74
2022/01/23 05:09:40;;;;;;;52.25;29.52;;;;;;;;;;5041287;28;20338;-73
2022/01/23 05:12:08;;;;;;;56.38;29.42;;;;;;;;;;5041351;28;20037;-73
2022/01/23 05:14:41;;;;;;;53.38;28.90;;;;;;;;;;5075403;28;20378;-74
2022/01/23 05:17:10;;;;;;;56.33;28.83;;;;;;;;;;5075899;28;20096;-73
2022/01/23 05:19:37;;;;;;;62.72;31.02;;;;;;;;;;5041252;28;20020;-74
2022/01/23 05:24:53;;;;;;;48.50;26.27;;;;;;;;;;5075965;28;20020;-74
2022/01/23 05:27:22;;;;;;;55.22;27.70;;;;;;;;;;5079533;28;20020;-75
2022/01/23 05:29:48;;;;;;;48.10;24.90;;;;;;;;;;5061412;28;20016;-74
2022/01/23 05:32:15;;;;;;;55.50;29.90;;;;;;;;;;5079431;28;20097;-75
2022/01/23 05:34:42;;;;;;;57.58;27.77;;;;;;;;;;5061799;28;20066;-73
2022/01/23 05:37:08;;;;;;;47.85;25.48;;;;;;;;;;5061885;28;20410;-73
2022/01/23 05:39:34;;;;;;;56.53;28.92;;;;;;;;;;5061469;28;20025;-73
2022/01/23 05:42:07;;;;;;;52.60;25.92;;;;;;;;;;5045415;28;20021;-74
2022/01/23 05:44:41;;;;;;;43.00;25.35;;;;;;;;;;5061335;28;20024;-74
2022/01/23 05:47:07;;;;;;;45.33;23.35;;;;;;;;;;5061215;28;20035;-73
2022/01/23 05:49:35;;;;;;;49.72;27.23;;;;;;;;;;5044702;28;20365;-73
2022/01/23 05:52:01;;;;;;;48.65;27.40;;;;;;;;;;5044610;28;20431;-73
2022/01/23 05:54:27;;;;;;;51.65;29.17;;;;;;;;;;5078652;28;20033;-73
2022/01/23 05:56:53;;;;;;;42.15;23.60;;;;;;;;;;5045013;28;20020;-76
2022/01/23 05:59:22;;;;;;;57.60;29.15;;;;;;;;;;5060999;28;20043;-74
2022/01/23 06:01:53;;;;;;;57.58;32.85;;;;;;;;;;5060830;28;20016;-73
2022/01/23 06:04:19;;;;;;;54.97;29.77;;;;;;;;;;5078258;28;20057;-73
2022/01/23 06:06:46;;;;;;;56.50;26.55;;;;;;;;;;5043901;28;20024;-73
2022/01/23 06:09:12;;;;;;;53.60;31.02;;;;;;;;;;5078531;28;20367;-74
2022/01/23 06:11:39;;;;;;;52.38;27.55;;;;;;;;;;5078815;28;20020;-74
2022/01/23 06:14:07;;;;;;;56.17;28.15;;;;;;;;;;5078928;28;20033;-73
2022/01/23 06:16:33;;;;;;;48.75;27.15;;;;;;;;;;5044254;28;20490;-73
2022/01/23 06:18:59;;;;;;;56.25;28.77;;;;;;;;;;5060149;28;20107;-73
2022/01/23 06:21:26;;;;;;;61.45;29.00;;;;;;;;;;5043875;28;20115;-74
2022/01/23 06:24:03;;;;;;;62.65;31.13;;;;;;;;;;5061051;28;20024;-74
2022/01/23 06:26:40;;;;;;;57.60;32.15;;;;;;;;;;5060899;28;20155;-74
2022/01/23 06:29:07;;;;;;;71.95;33.00;;;;;;;;;;5060592;28;20021;-74
2022/01/23 06:31:33;;;;;;;63.28;32.78;;;;;;;;;;5061004;28;20030;-74
2022/01/23 06:33:59;;;;;;;64.63;34.65;;;;;;;;;;5060451;28;20046;-73
2022/01/23 06:36:27;;;;;;;72.03;35.95;;;;;;;;;;5060792;28;20023;-76
2022/01/23 06:38:54;;;;;;;68.82;36.47;;;;;;;;;;5043959;28;20378;-74
2022/01/23 06:41:20;;;;;;;70.82;35.15;;;;;;;;;;5060736;28;20024;-73
2022/01/23 06:43:46;;;;;;;83.35;39.78;;;;;;;;;;5060823;28;20029;-73
2022/01/23 06:46:12;;;;;;;58.47;33.30;;;;;;;;;;5060273;28;20031;-72
2022/01/23 06:48:38;;;;;;;66.30;35.90;;;;;;;;;;5043535;28;20160;-73
2022/01/23 06:51:04;;;;;;;64.57;33.50;;;;;;;;;;5060301;28;20035;-75
2022/01/23 06:53:30;;;;;;;61.90;31.13;;;;;;;;;;5043611;28;20434;-74
2022/01/23 06:55:56;;;;;;;64.18;35.67;;;;;;;;;;5059832;28;20516;-72
2022/01/23 06:58:22;;;;;;;72.72;35.78;;;;;;;;;;5077124;28;20024;-73
2022/01/23 07:00:48;;;;;;;55.95;33.63;;;;;;;;;;5042935;28;20354;-73
2022/01/23 07:03:14;;;;;;;58.10;33.47;;;;;;;;;;5043065;28;20035;-73
2022/01/23 07:05:41;;;;;;;58.15;31.90;;;;;;;;;;5060090;28;20021;-74
2022/01/23 07:08:07;;;;;;;68.03;33.28;;;;;;;;;;5042975;28;20029;-73
2022/01/23 07:10:33;;;;;;;65.80;30.40;;;;;;;;;;5077319;28;20044;-74
2022/01/23 07:12:59;;;;;;;54.30;26.60;;;;;;;;;;5059873;28;20086;-73
2022/01/23 07:15:25;;;;;;;58.08;31.15;;;;;;;;;;5059560;28;20020;-75
2022/01/23 07:17:51;;;;;;;54.47;28.60;;;;;;;;;;5043253;28;20422;-73
2022/01/23 07:20:17;;;;;;;53.20;26.98;;;;;;;;;;5058918;28;20449;-73
2022/01/23 07:22:44;;;;;;;49.38;27.85;;;;;;;;;;5058884;28;20335;-73
2022/01/23 07:25:10;;;;;;;45.55;26.35;;;;;;;;;;5077048;28;20016;-73
2022/01/23 07:27:41;;;;;;;42.35;24.63;;;;;;;;;;5058957;28;20418;-73
2022/01/23 07:30:16;;;;;;;47.15;25.38;;;;;;;;;;5059377;28;20437;-73
2022/01/23 07:32:42;;;;;;;36.63;20.52;;;;;;;;;;5042135;28;20029;-73
2022/01/23 07:35:08;;;;;;;44.97;22.15;;;;;;;;;;5076235;28;20448;-73
2022/01/23 07:37:34;;;;;;;34.35;19.05;;;;;;;;;;5058883;28;20031;-73
2022/01/23 07:40:00;;;;;;;37.90;20.00;;;;;;;;;;5076164;28;20016;-73
2022/01/23 07:42:26;;;;;;;49.33;22.83;;;;;;;;;;5058996;28;20025;-73
2022/01/23 07:44:53;;;;;;;45.75;20.92;;;;;;;;;;5058675;28;20055;-74
2022/01/23 07:47:22;;;;;;;35.38;16.30;;;;;;;;;;5058488;28;20041;-73
2022/01/23 07:49:49;;;;;;;21.92;12.05;;;;;;;;;;5058708;28;20020;-74
2022/01/23 07:52:19;;;;;;;23.73;14.55;;;;;;;;;;5058812;28;20473;-73
2022/01/23 07:54:45;;;;;;;45.13;15.02;;;;;;;;;;5042475;28;20335;-73
2022/01/23 07:57:11;;;;;;;42.65;18.73;;;;;;;;;;5042896;28;20016;-74
2022/01/23 07:59:38;;;;;;;42.97;20.80;;;;;;;;;;5042332;28;20036;-74
2022/01/23 08:02:04;;;;;;;34.58;20.48;;;;;;;;;;5058622;28;20294;-73
2022/01/23 08:04:30;;;;;;;33.13;17.65;;;;;;;;;;5076576;28;20418;-72
2022/01/23 08:07:11;;;;;;;37.13;19.58;;;;;;;;;;5058059;28;20400;-74
2022/01/23 08:09:37;;;;;;;;;;;;;;;;;;5059175;28;20448;-72
2022/01/23 08:12:03;;;;;;;37.05;17.25;;;;;;;;;;5042099;28;19905;-73
2022/01/23 08:14:29;;;;;;;37.63;18.98;;;;;;;;;;5041949;28;20074;-73
2022/01/23 08:16:55;;;;;;;40.20;19.08;;;;;;;;;;5058888;28;20020;-73
2022/01/23 08:19:21;;;;;;;34.53;18.98;;;;;;;;;;5041659;28;20021;-73
2022/01/23 08:21:48;;;;;;;39.78;20.48;;;;;;;;;;5075875;28;20169;-72
2022/01/23 08:24:14;;;;;;;41.35;20.85;;;;;;;;;;5057983;28;20058;-72
2022/01/23 08:26:40;;;;;;;44.60;22.10;;;;;;;;;;5057790;28;20013;-73
2022/01/23 08:29:07;;;;;;;37.55;20.13;;;;;;;;;;5076446;28;20039;-74
2022/01/23 08:31:33;;;;;;;39.47;22.05;;;;;;;;;;5076156;28;20043;-74
2022/01/23 08:34:20;;;;;;;35.28;18.38;;;;;;;;;;5076383;28;20036;-74
2022/01/23 08:37:16;;;;;;;33.75;17.05;;;;;;;;;;5076318;28;20342;-74
2022/01/23 08:39:42;;;;;;;31.95;18.35;;;;;;;;;;5058375;28;20021;-73
2022/01/23 08:42:12;;;;;;;31.98;15.80;;;;;;;;;;5058102;28;20052;-73
2022/01/23 08:44:39;;;;;;;33.47;17.48;;;;;;;;;;5075767;28;20502;-74
2022/01/23 08:47:05;;;;;;;40.92;22.15;;;;;;;;;;5057884;28;20162;-74
2022/01/23 08:49:32;;;;;;;33.65;19.42;;;;;;;;;;5057909;28;20290;-73
2022/01/23 08:51:58;;;;;;;38.10;19.48;;;;;;;;;;5076126;28;20025;-74
2022/01/23 08:54:25;;;;;;;38.22;21.52;;;;;;;;;;5057686;28;20302;-73
2022/01/23 08:56:51;;;;;;;33.40;18.60;;;;;;;;;;5058080;28;20024;-73
2022/01/23 08:59:17;;;;;;;40.90;20.25;;;;;;;;;;5058104;28;20029;-74
2022/01/23 09:01:44;;;;;;;32.97;21.42;;;;;;;;;;5078432;28;20024;-73
2022/01/23 09:04:12;;;;;;;30.80;17.88;;;;;;;;;;5061931;28;20020;-74
2022/01/23 09:06:38;;;;;;;38.80;19.00;;;;;;;;;;5061443;28;20024;-75
2022/01/23 09:09:07;;;;;;;36.90;18.33;;;;;;;;;;5045423;28;20027;-74
2022/01/23 09:14:06;;;;;;;42.80;23.98;;;;;;;;;;5061772;28;20032;-74
2022/01/23 09:16:45;;;;;;;47.53;25.02;;;;;;;;;;5079555;28;20504;-73
2022/01/23 09:19:11;;;;;;;40.22;20.95;;;;;;;;;;5079302;28;20020;-76
2022/01/23 09:21:39;;;;;;;45.22;24.23;;;;;;;;;;5079086;28;20082;-75
2022/01/23 09:24:05;;;;;;;42.33;22.13;;;;;;;;;;5079562;28;20016;-74
2022/01/23 09:26:31;;;;;;;50.45;22.80;;;;;;;;;;5079546;28;20027;-75
2022/01/23 09:29:00;;;;;;;46.63;23.83;;;;;;;;;;5061324;28;20024;-74
2022/01/23 09:31:46;;;;;;;53.72;25.48;;;;;;;;;;5045265;28;20024;-73
2022/01/23 09:34:12;;;;;;;55.03;26.55;;;;;;;;;;5061087;28;20298;-74
2022/01/23 09:36:38;;;;;;;49.28;25.55;;;;;;;;;;5061567;28;20016;-73
2022/01/23 09:39:04;;;;;;;44.55;24.27;;;;;;;;;;5079375;28;20035;-73
2022/01/23 09:41:31;;;;;;;47.97;23.27;;;;;;;;;;5061778;28;20034;-74
2022/01/23 09:43:59;;;;;;;42.45;23.45;;;;;;;;;;5062192;28;20024;-73
2022/01/23 09:46:25;;;;;;;43.90;25.77;;;;;;;;;;5061679;28;20066;-74
2022/01/23 09:48:52;;;;;;;37.50;22.35;;;;;;;;;;5045065;28;20051;-73
2022/01/23 09:51:25;;;;;;;56.53;27.27;;;;;;;;;;5061896;28;20074;-75
2022/01/23 09:53:54;;;;;;;38.00;20.80;;;;;;;;;;5079391;28;20078;-74
2022/01/23 09:56:27;;;;;;;42.55;21.33;;;;;;;;;;5061340;28;20020;-74
2022/01/23 09:58:54;;;;;;;42.97;23.10;;;;;;;;;;5061291;28;20021;-74
2022/01/23 10:01:22;;;;;;;38.92;19.85;;;;;;;;;;5079246;28;20028;-74
2022/01/23 10:03:52;;;;;;;55.42;23.15;;;;;;;;;;5078669;28;20303;-73
2022/01/23 10:06:18;;;;;;;44.83;21.52;;;;;;;;;;5060410;28;20021;-73
2022/01/23 10:08:44;;;;;;;36.58;19.27;;;;;;;;;;5061405;28;20032;-73
2022/01/23 10:11:13;;;;;;;39.72;20.50;;;;;;;;;;5060327;28;20365;-73
2022/01/23 10:13:40;;;;;;;36.83;20.10;;;;;;;;;;5061008;28;20024;-74
2022/01/23 10:16:06;;;;;;;40.17;20.65;;;;;;;;;;5078474;28;20430;-74
2022/01/23 10:18:32;;;;;;;34.28;20.17;;;;;;;;;;5078256;28;20107;-74
2022/01/23 10:20:59;;;;;;;36.85;20.35;;;;;;;;;;5044116;28;20017;-74
2022/01/23 10:23:25;;;;;;;33.90;19.75;;;;;;;;;;5044489;28;20044;-74
2022/01/23 10:25:53;;;;;;;37.67;18.63;;;;;;;;;;5044232;28;20086;-74
2022/01/23 10:28:21;;;;;;;40.10;21.75;;;;;;;;;;5078418;28;20111;-75
2022/01/23 10:30:50;;;;;;;44.92;22.35;;;;;;;;;;5060553;28;20393;-74
2022/01/23 10:33:16;;;;;;;52.90;24.55;;;;;;;;;;5043498;28;20465;-74
2022/01/23 10:35:58;;;;;;;36.40;20.65;;;;;;;;;;5060127;28;20031;-75
2022/01/23 10:38:27;;;;;;;40.85;21.42;;;;;;;;;;5077986;28;20154;-74
2022/01/23 10:41:47;;;;;;;37.00;22.55;;;;;;;;;;5043761;28;20307;-74
2022/01/23 10:49:52;;;;;;;43.65;22.75;;;;;;;;;;5060279;28;20070;-73
2022/01/23 10:52:47;;;;;;;43.22;22.35;;;;;;;;;;5077434;28;20082;-76
2022/01/23 10:55:13;;;;;;;35.35;19.20;;;;;;;;;;5074844;28;20029;-75
2022/01/23 10:57:40;;;;;;;43.55;21.52;;;;;;;;;;5043902;28;20024;-73
2022/01/23 11:00:08;;;;;;;39.95;18.15;;;;;;;;;;5059995;28;20258;-74
2022/01/23 11:02:38;;;;;;;37.13;20.13;;;;;;;;;;5059710;28;20016;-73
2022/01/23 11:05:05;;;;;;;40.03;18.77;;;;;;;;;;5060170;28;20021;-75
2022/01/23 11:07:32;;;;;;;34.15;18.88;;;;;;;;;;5043504;28;20062;-75
2022/01/23 11:10:01;;;;;;;36.15;19.15;;;;;;;;;;5077876;28;20024;-75
2022/01/23 11:12:45;;;;;;;33.85;16.85;;;;;;;;;;5042787;28;20401;-76
2022/01/23 11:18:01;;;;;;;50.78;23.73;;;;;;;;;;5077126;28;20012;-75
2022/01/23 11:20:48;;;;;;;40.53;20.38;;;;;;;;;;5058724;28;20331;-74
2022/01/23 11:23:15;;;;;;;56.83;23.05;;;;;;;;;;5076124;28;20138;-74
2022/01/23 11:25:43;;;;;;;53.28;27.73;;;;;;;;;;5042620;28;20119;-75
2022/01/23 11:28:09;;;;;;;49.33;26.05;;;;;;;;;;5071363;22;20045;-74
2022/01/23 11:30:46;;;;;;;49.70;24.88;;;;;;;;;;5054811;28;20179;-74
2022/01/23 11:33:13;;;;;;;43.38;21.33;;;;;;;;;;5056875;28;20064;-74
2022/01/23 11:35:39;;;;;;;48.22;24.88;;;;;;;;;;5055667;28;20103;-74
2022/01/23 11:38:11;;;;;;;52.47;25.08;;;;;;;;;;5056039;28;20032;-73
2022/01/23 11:53:56;;;;;;;69.72;34.22;;;;;;;;;;5056847;28;20367;-73
2022/01/23 11:56:25;;;;;;;81.70;38.85;;;;;;;;;;5055342;28;20017;-75
2022/01/23 11:58:53;;;;;;;33.30;19.48;;;;;;;;;;5057277;28;20028;-75
2022/01/23 12:01:20;;;;;;;43.60;22.00;;;;;;;;;;5054921;28;20032;-73
2022/01/23 12:04:20;;;;;;;57.17;30.63;;;;;;;;;;5038363;28;20055;-74
2022/01/23 12:07:05;;;;;;;61.90;31.75;;;;;;;;;;5055526;28;20021;-74
2022/01/23 12:09:31;;;;;;;81.63;42.33;;;;;;;;;;5054747;28;20017;-74
2022/01/23 12:12:05;;;;;;;60.08;33.85;;;;;;;;;;5054770;28;20021;-75
2022/01/23 12:17:11;;;;;;;42.83;22.95;;;;;;;;;;5056041;28;20021;-76
2022/01/23 12:19:45;;;;;;;40.35;21.10;;;;;;;;;;5055315;28;20017;-74
2022/01/23 12:22:28;;;;;;;32.97;17.88;;;;;;;;;;5039666;28;20116;-74
2022/01/23 12:24:55;;;;;;;36.50;21.20;;;;;;;;;;5054943;28;20111;-74
2022/01/23 12:27:24;;;;;;;44.80;21.60;;;;;;;;;;5055534;28;20036;-74
2022/01/23 12:29:51;;;;;;;37.05;21.73;;;;;;;;;;5054967;28;20031;-74
2022/01/23 12:32:17;;;;;;;51.47;25.02;;;;;;;;;;5055187;28;20021;-76
2022/01/23 12:35:03;;;;;;;60.75;26.90;;;;;;;;;;5041237;28;20077;-74
2022/01/23 12:37:48;;;;;;;55.33;29.70;;;;;;;;;;5062479;28;20060;-74
2022/01/23 12:40:20;;;;;;;67.32;34.28;;;;;;;;;;5045730;28;20434;-74
2022/01/23 12:43:04;;;;;;;70.72;33.92;;;;;;;;;;5063457;28;20017;-74
2022/01/23 12:45:49;;;;;;;63.70;34.72;;;;;;;;;;5063319;28;20032;-74
2022/01/23 12:48:36;;;;;;;58.00;31.80;;;;;;;;;;5062945;28;20174;-74
2022/01/23 12:51:17;;;;;;;68.95;32.15;;;;;;;;;;5053298;28;20431;-74
2022/01/23 12:53:43;;;;;;;65.10;31.13;;;;;;;;;;5061818;28;20097;-74
2022/01/23 12:56:12;;;;;;;69.47;33.53;;;;;;;;;;5044974;28;20058;-74
2022/01/23 12:58:38;;;;;;;77.38;35.28;;;;;;;;;;5061815;28;20028;-74
2022/01/23 13:01:05;;;;;;;70.38;37.25;;;;;;;;;;5062700;28;20025;-75
2022/01/23 13:03:31;;;;;;;65.82;33.60;;;;;;;;;;5045138;28;20025;-74
2022/01/23 13:05:57;;;;;;;58.92;29.90;;;;;;;;;;5061365;28;20021;-74
2022/01/23 13:08:29;;;;;;;54.22;28.42;;;;;;;;;;5061724;28;20041;-74
2022/01/23 13:13:47;;;;;;;51.53;23.05;;;;;;;;;;5061315;28;20040;-74
2022/01/23 13:16:24;;;;;;;52.47;24.88;;;;;;;;;;5061283;28;20114;-74
2022/01/23 13:30:20;;;;;;;38.53;21.33;;;;;;;;;;5062630;28;20027;-73
2022/01/23 13:32:49;;;;;;;38.45;19.23;;;;;;;;;;5061456;28;20052;-74
2022/01/23 13:35:17;;;;;;;35.92;18.25;;;;;;;;;;5062038;28;20025;-74
2022/01/23 13:37:45;;;;;;;37.22;18.20;;;;;;;;;;5061195;28;20062;-74
2022/01/23 13:40:14;;;;;;;37.42;18.77;;;;;;;;;;5045055;28;20082;-74
2022/01/23 13:48:44;;;;;;;52.92;24.60;;;;;;;;;;5058388;28;20415;-74
2022/01/23 13:59:21;;;;;;;50.33;27.58;;;;;;;;;;5058122;28;20021;-74
2022/01/23 14:01:54;;;;;;;48.53;25.20;;;;;;;;;;5059109;28;20032;-74
2022/01/23 14:04:22;;;;;;;50.10;24.85;;;;;;;;;;5041381;28;20029;-73
2022/01/23 14:06:49;;;;;;;52.92;25.20;;;;;;;;;;5041198;28;20017;-74
2022/01/23 14:09:16;;;;;;;48.45;25.33;;;;;;;;;;5041466;28;20465;-74
2022/01/23 14:11:43;;;;;;;53.38;25.00;;;;;;;;;;5058650;28;20017;-74
2022/01/23 14:14:14;;;;;;;40.33;21.55;;;;;;;;;;5040904;28;20028;-73
2022/01/23 14:16:40;;;;;;;37.80;19.17;;;;;;;;;;5040476;28;20111;-74
2022/01/23 14:19:18;;;;;;;42.72;21.23;;;;;;;;;;5056650;28;20411;-74
2022/01/23 14:21:45;;;;;;;34.13;19.38;;;;;;;;;;5057797;28;20462;-74
2022/01/23 14:24:11;;;;;;;33.17;19.27;;;;;;;;;;5057160;28;20025;-74
2022/01/23 14:26:37;;;;;;;44.08;20.42;;;;;;;;;;5056693;28;20033;-74
2022/01/23 14:29:05;;;;;;;35.63;19.10;;;;;;;;;;5057193;28;20087;-74
2022/01/23 14:31:38;;;;;;;36.95;20.65;;;;;;;;;;5057504;28;20115;-74
2022/01/23 14:34:23;;;;;;;50.72;23.13;;;;;;;;;;5040486;28;20037;-73
2022/01/23 14:36:58;;;;;;;42.85;20.63;;;;;;;;;;5040984;28;20126;-75
2022/01/23 14:39:24;;;;;;;35.67;19.50;;;;;;;;;;5058555;28;20027;-73
2022/01/23 14:41:50;;;;;;;42.80;19.00;;;;;;;;;;5057020;28;20028;-74
2022/01/23 14:44:24;;;;;;;35.80;17.40;;;;;;;;;;5040297;28;20025;-74
2022/01/23 14:46:54;;;;;;;43.83;19.50;;;;;;;;;;5040856;28;20470;-73
2022/01/23 14:49:25;;;;;;;36.42;20.33;;;;;;;;;;5056698;28;20032;-74
2022/01/23 14:51:53;;;;;;;38.35;22.15;;;;;;;;;;5057088;28;20025;-73
2022/01/23 14:54:20;;;;;;;52.70;23.85;;;;;;;;;;5057907;28;20033;-74
2022/01/23 14:56:46;;;;;;;41.00;22.02;;;;;;;;;;5058441;28;20021;-74
2022/01/23 14:59:14;;;;;;;46.83;23.45;;;;;;;;;;5056966;28;20099;-74
2022/01/23 15:01:41;;;;;;;40.45;21.00;;;;;;;;;;5056966;28;20055;-74
2022/01/23 15:04:08;;;;;;;42.05;21.05;;;;;;;;;;5058576;28;20024;-74
2022/01/23 15:06:35;;;;;;;37.83;21.60;;;;;;;;;;5039971;28;20017;-74
2022/01/23 15:09:05;;;;;;;41.67;21.00;;;;;;;;;;5056470;28;20025;-74
2022/01/23 15:11:32;;;;;;;48.53;22.65;;;;;;;;;;5056358;28;20100;-74
2022/01/23 15:13:58;;;;;;;34.25;20.60;;;;;;;;;;5039555;28;20033;-74
2022/01/23 15:16:24;;;;;;;41.22;21.92;;;;;;;;;;5057361;28;20024;-74
2022/01/23 15:18:50;;;;;;;35.90;21.50;;;;;;;;;;5056147;28;20027;-74
2022/01/23 15:21:16;;;;;;;39.28;20.85;;;;;;;;;;5057451;28;20016;-74
2022/01/23 15:23:42;;;;;;;45.08;22.63;;;;;;;;;;5057393;28;20023;-74
2022/01/23 15:26:08;;;;;;;43.38;22.73;;;;;;;;;;5039631;28;20403;-74
2022/01/23 15:28:34;;;;;;;41.78;22.20;;;;;;;;;;5055748;28;20387;-74
2022/01/23 15:31:00;;;;;;;43.90;24.52;;;;;;;;;;5057013;28;20023;-74
2022/01/23 15:33:26;;;;;;;37.88;21.55;;;;;;;;;;5039255;28;20383;-74
2022/01/23 15:35:53;;;;;;;53.92;26.98;;;;;;;;;;5039534;28;20020;-74
2022/01/23 15:38:21;;;;;;;49.63;26.02;;;;;;;;;;5056870;28;20017;-74
2022/01/23 15:40:48;;;;;;;58.58;30.30;;;;;;;;;;5039002;28;20021;-74
2022/01/23 15:43:14;;;;;;;54.67;29.15;;;;;;;;;;5055752;28;20025;-74
2022/01/23 15:45:42;;;;;;;61.83;28.90;;;;;;;;;;5055441;28;20347;-74
2022/01/23 15:48:08;;;;;;;53.58;26.15;;;;;;;;;;5056379;28;20017;-74
2022/01/23 15:50:34;;;;;;;56.60;29.52;;;;;;;;;;5055723;28;20304;-74
2022/01/23 15:53:00;;;;;;;54.53;26.90;;;;;;;;;;5057062;28;20029;-74
2022/01/23 15:55:28;;;;;;;46.08;26.15;;;;;;;;;;5056834;28;20016;-74
2022/01/23 15:57:57;;;;;;;41.90;23.75;;;;;;;;;;5038720;28;20078;-73
2022/01/23 16:00:24;;;;;;;52.63;24.40;;;;;;;;;;5056931;28;20411;-74
2022/01/23 16:02:50;;;;;;;37.38;20.02;;;;;;;;;;5055750;28;20025;-74
2022/01/23 16:05:17;;;;;;;47.60;21.83;;;;;;;;;;5039009;28;20074;-74
2022/01/23 16:07:43;;;;;;;41.58;20.77;;;;;;;;;;5055454;28;20020;-73
2022/01/23 16:10:09;;;;;;;41.65;19.38;;;;;;;;;;5055785;28;20435;-74
2022/01/23 16:12:38;;;;;;;37.45;19.80;;;;;;;;;;5054980;28;20071;-74
2022/01/23 16:15:05;;;;;;;49.33;26.08;;;;;;;;;;5055594;28;20021;-74
2022/01/23 16:17:31;;;;;;;49.83;24.48;;;;;;;;;;5054772;28;20116;-73
2022/01/23 16:20:00;;;;;;;46.35;24.23;;;;;;;;;;5056944;28;20112;-73
2022/01/23 16:22:26;;;;;;;47.30;24.20;;;;;;;;;;5054572;28;20021;-74
2022/01/23 16:24:52;;;;;;;50.85;24.27;;;;;;;;;;5054856;28;20017;-74
2022/01/23 16:27:18;;;;;;;44.10;23.13;;;;;;;;;;5056448;28;20039;-74
2022/01/23 16:29:44;;;;;;;41.88;23.08;;;;;;;;;;5038598;28;20021;-74
2022/01/23 16:32:10;;;;;;;51.80;24.83;;;;;;;;;;5055369;28;20024;-74
2022/01/23 16:34:36;;;;;;;37.50;18.20;;;;;;;;;;5055589;28;20024;-74
2022/01/23 16:37:03;;;;;;;27.55;16.27;;;;;;;;;;5038936;28;20021;-74
2022/01/23 16:39:29;;;;;;;28.55;15.38;;;;;;;;;;5056415;28;20032;-75
2022/01/23 16:41:56;;;;;;;29.67;17.90;;;;;;;;;;5056302;28;20024;-74
2022/01/23 16:44:23;;;;;;;30.10;16.70;;;;;;;;;;5038594;28;20024;-74
2022/01/23 16:46:49;;;;;;;33.30;18.63;;;;;;;;;;5054694;28;20095;-74
2022/01/23 16:49:15;;;;;;;40.83;20.60;;;;;;;;;;5038722;28;20023;-74
2022/01/23 16:51:42;;;;;;;39.33;21.13;;;;;;;;;;5055515;28;20031;-74
2022/01/23 16:54:09;;;;;;;29.38;17.70;;;;;;;;;;5054812;28;20132;-75
2022/01/23 16:56:35;;;;;;;33.10;18.35;;;;;;;;;;5055581;28;20012;-74
2022/01/23 16:59:02;;;;;;;34.20;18.50;;;;;;;;;;5054758;28;20021;-74
2022/01/23 17:01:28;;;;;;;34.42;18.85;;;;;;;;;;5054418;28;20025;-74
2022/01/23 17:03:56;;;;;;;36.85;18.13;;;;;;;;;;5037726;28;20021;-74
2022/01/23 17:06:23;;;;;;;35.83;17.17;;;;;;;;;;5054290;28;20025;-74
2022/01/23 17:08:49;;;;;;;37.05;19.65;;;;;;;;;;5054321;28;20017;-74
2022/01/23 17:11:16;;;;;;;42.40;21.20;;;;;;;;;;5037741;28;20350;-73
2022/01/23 17:13:44;;;;;;;45.10;22.77;;;;;;;;;;5054487;28;20143;-74
2022/01/23 17:16:10;;;;;;;58.83;29.55;;;;;;;;;;5054611;28;20025;-74
2022/01/23 17:18:36;;;;;;;66.80;31.95;;;;;;;;;;5037922;28;20025;-74
2022/01/23 17:21:03;;;;;;;70.50;34.92;;;;;;;;;;5038636;28;20103;-74
2022/01/23 17:23:29;;;;;;;78.22;37.10;;;;;;;;;;5041928;28;20021;-74
2022/01/23 17:25:55;;;;;;;75.30;37.95;;;;;;;;;;5041826;28;20021;-74
2022/01/23 17:28:21;;;;;;;85.35;42.75;;;;;;;;;;5058675;28;20089;-74
2022/01/23 17:30:47;;;;;;;86.38;42.03;;;;;;;;;;5058613;28;20415;-73
2022/01/23 17:33:14;;;;;;;82.75;40.58;;;;;;;;;;5041867;28;20139;-75
2022/01/23 17:35:40;;;;;;;85.35;40.13;;;;;;;;;;5060389;28;20021;-74
2022/01/23 17:38:09;;;;;;;80.43;42.33;;;;;;;;;;5042149;28;20024;-74
2022/01/23 17:40:35;;;;;;;78.95;40.40;;;;;;;;;;5059598;28;20096;-74
2022/01/23 17:43:04;;;;;;;90.72;43.85;;;;;;;;;;5059473;28;20370;-74
2022/01/23 17:45:48;;;;;;;85.65;42.55;;;;;;;;;;5058060;28;20017;-74
2022/01/23 17:48:33;;;;;;;89.28;43.50;;;;;;;;;;5041671;28;20021;-74